Tulsa International Airport
KTUL : now visible

Airfield :











YOU CAN JOIN US ON...

 
LOGIN :

Register | Disclaimer

   EN    FR    IT 

 









Legend :    VFR   Marginal VFR   IFR   Intensive IFR   Very Intensive IFR
Visi :
Ceiling :
>= 8 km
>= 3000ft
5 to 8 km
1000 to 3000 ft
1500m to 5 km
500 to 1000 ft
800 to 1500m
200 to 500 ft
< 800m
< 200 ft
Symbols :   Thunderstorms  Fog  Heavy snow  Heavy precipitations  Wind > 20 kt






- Airport Elevation : 677 ft
- IATA code : TUL


KTUL - Tulsa International

CURRENT METAR :
  • 280453Z 00000KT 10SM FEW014 OVC200 19/18 A2986 RMK AO2 SLP107 T01890178

EXPIRED METARs :
  • 280353Z 10003KT 10SM BKN090 OVC200 18/18 A2987 RMK AO2 SLP108 T01830178
  • 280253Z 28004KT 10SM BKN065 BKN120 OVC150 19/18 A2986 RMK AO2 SLP106 60004 T01940183 53011

TAF KTUL
Valid from the 28 at 02:00 until the 29 at 00:00 UTC


280207Z 2802/2824 29004KT P6SM VCSH FEW040 FEW070 BKN160
FM280900 32003KT 4SM BR VCSH OVC050
FM281200 32004KT 5SM BR VCSH OVC015
FM281500 31007KT P6SM VCSH OVC007
PROB30 2815/2818 2SM -TSRA BKN030CB
FM281800 34008KT P6SM VCSH OVC015
PROB30 2818/2821 2SM -TSRA BKN030CB
FM282100 34012KT P6SM VCSH OVC050
PROB30 2821/2824 2SM -TSRA BKN030CB
KZKC FIR / North America



MET'MAP, your aeronautical weather chart ! - Copyright ORBIFLY December 2007 - Disclaimer

ORBIFLY MET'MAP TEAM :

Programming & Development : Alexandra Zaïnal
Concept & original design : Baudouin d'Aumeries
Assistance for programming : Marc-Olivier Méhu
Technical & hardware support : Manuel Goepfert

Contact : metmap@orbifly.com




SOURCES & CREDITS :

   NOAA       Earth
Advisory